createdAt,value
2022-12-15T00:02:19.615Z,11.40
2022-12-15T00:05:06.280Z,22.52
2022-12-15T00:07:53.031Z,28.70
2022-12-15T00:10:38.774Z,18.17
2022-12-15T00:13:33.163Z,28.52
2022-12-15T00:16:19.042Z,35.63
2022-12-15T00:19:04.256Z,28.35
2022-12-15T00:21:50.068Z,32.90
2022-12-15T00:24:36.595Z,33.85
2022-12-15T00:30:08.077Z,21.08
2022-12-15T00:35:38.686Z,26.55
2022-12-15T00:40:59.527Z,21.02
2022-12-15T00:43:35.580Z,16.17
2022-12-15T00:46:22.875Z,27.33
2022-12-15T00:48:49.885Z,36.25
2022-12-15T00:51:17.852Z,14.82
2022-12-15T00:54:04.205Z,21.38
2022-12-15T00:56:49.854Z,27.38
2022-12-15T00:59:36.639Z,24.35
2022-12-15T01:02:22.606Z,30.80
2022-12-15T01:05:08.149Z,22.58
2022-12-15T01:07:53.852Z,29.30
2022-12-15T01:10:39.067Z,13.23
2022-12-15T01:13:24.844Z,30.98
2022-12-15T01:16:10.660Z,21.08
2022-12-15T01:18:56.303Z,20.73
2022-12-15T01:23:53.200Z,31.40
2022-12-15T01:26:20.374Z,32.38
2022-12-15T01:28:47.144Z,31.92
2022-12-15T01:31:14.696Z,25.95
2022-12-15T01:33:43.591Z,25.67
2022-12-15T01:36:11.513Z,12.30
2022-12-15T01:38:38.488Z,14.60
2022-12-15T01:41:10.596Z,35.30
2022-12-15T01:43:40.628Z,9.60
2022-12-15T01:46:10.112Z,24.98
2022-12-15T01:48:44.834Z,14.32
2022-12-15T01:51:26.161Z,26.20
2022-12-15T01:54:04.580Z,22.25
2022-12-15T01:56:40.006Z,20.95
2022-12-15T01:59:14.878Z,20.83
2022-12-15T02:01:41.806Z,17.08
2022-12-15T02:04:11.150Z,36.03
2022-12-15T02:06:38.145Z,34.13
2022-12-15T02:09:05.591Z,20.13
2022-12-15T02:12:14.010Z,39.67
2022-12-15T02:15:02.322Z,13.98
2022-12-15T02:17:41.441Z,28.48
2022-12-15T02:20:52.643Z,25.75
2022-12-15T02:24:00.095Z,17.65
2022-12-15T02:26:51.244Z,20.55
2022-12-15T02:29:45.696Z,22.83
2022-12-15T02:32:26.228Z,27.25
2022-12-15T02:35:14.664Z,32.47
2022-12-15T02:37:41.520Z,32.47
2022-12-15T02:40:11.378Z,29.02
2022-12-15T02:42:47.782Z,22.58
2022-12-15T02:45:21.512Z,43.55
2022-12-15T02:48:25.427Z,14.32
2022-12-15T02:51:15.639Z,31.00
2022-12-15T02:54:01.454Z,26.58
2022-12-15T02:56:51.752Z,33.95
2022-12-15T02:59:27.273Z,21.35
2022-12-15T03:02:02.471Z,20.92
2022-12-15T03:04:33.762Z,35.13
2022-12-15T03:07:04.971Z,34.33
2022-12-15T03:09:33.107Z,24.13
2022-12-15T03:12:00.303Z,24.38
2022-12-15T03:14:27.603Z,20.40
2022-12-15T03:16:55.368Z,32.25
2022-12-15T03:19:22.843Z,27.15
2022-12-15T03:21:49.568Z,26.08
2022-12-15T03:24:16.324Z,18.92
2022-12-15T03:26:43.800Z,37.78
2022-12-15T03:29:10.664Z,24.73
2022-12-15T03:31:37.447Z,21.20
2022-12-15T03:34:04.235Z,15.38
2022-12-15T03:36:31.025Z,22.30
2022-12-15T03:38:57.716Z,19.02
2022-12-15T03:41:24.473Z,27.50
2022-12-15T03:43:51.159Z,34.85
2022-12-15T03:46:18.026Z,19.27
2022-12-15T03:48:44.769Z,18.55
2022-12-15T03:51:11.515Z,24.30
2022-12-15T03:53:38.263Z,32.30
2022-12-15T03:56:05.447Z,30.27
2022-12-15T03:58:32.178Z,26.98
2022-12-15T04:00:59.082Z,31.25
2022-12-15T04:03:25.957Z,22.10
2022-12-15T04:05:52.722Z,19.42
2022-12-15T04:08:26.858Z,23.70
2022-12-15T04:10:56.491Z,26.83
2022-12-15T04:13:23.204Z,34.47
2022-12-15T04:15:50.044Z,30.95
2022-12-15T04:18:16.790Z,18.02
2022-12-15T04:20:43.599Z,41.92
2022-12-15T04:23:10.404Z,40.33
2022-12-15T04:25:56.471Z,46.35
2022-12-15T04:28:42.017Z,24.20
2022-12-15T04:34:23.441Z,34.33
2022-12-15T04:37:12.156Z,22.80
2022-12-15T04:40:02.512Z,21.25
2022-12-15T04:42:52.411Z,33.58
2022-12-15T04:45:43.118Z,34.67
2022-12-15T04:48:29.852Z,26.73
2022-12-15T04:51:15.428Z,22.27
2022-12-15T04:54:04.807Z,27.00
2022-12-15T04:56:50.766Z,31.48
2022-12-15T04:59:36.533Z,22.45
2022-12-15T05:02:21.877Z,24.65
2022-12-15T05:07:52.508Z,21.90
2022-12-15T05:10:37.697Z,27.23
2022-12-15T05:13:27.558Z,25.15
2022-12-15T05:16:13.222Z,37.17
2022-12-15T05:21:43.796Z,38.85
2022-12-15T05:24:29.051Z,43.97
2022-12-15T05:27:14.212Z,27.83
2022-12-15T05:29:59.680Z,27.10
2022-12-15T05:32:26.517Z,44.38
2022-12-15T05:34:53.209Z,22.58
2022-12-15T05:37:20.020Z,22.60
2022-12-15T05:39:46.712Z,50.15
2022-12-15T05:42:13.460Z,43.35
2022-12-15T05:44:40.740Z,33.22
2022-12-15T05:47:09.213Z,46.85
2022-12-15T05:49:36.120Z,40.35
2022-12-15T05:52:03.533Z,22.48
2022-12-15T05:54:30.313Z,45.80
2022-12-15T05:56:57.161Z,39.25
2022-12-15T05:59:23.954Z,27.55
2022-12-15T06:01:51.002Z,34.30
2022-12-15T06:04:17.882Z,38.47
2022-12-15T06:06:44.704Z,35.25
2022-12-15T06:09:11.627Z,40.75
2022-12-15T06:11:38.437Z,28.55
2022-12-15T06:14:05.694Z,37.33
2022-12-15T06:16:33.151Z,30.52
2022-12-15T06:19:02.339Z,32.78
2022-12-15T06:21:35.258Z,38.65
2022-12-15T06:24:04.784Z,45.35
2022-12-15T06:26:38.059Z,46.70
2022-12-15T06:29:08.801Z,47.58
2022-12-15T06:31:37.759Z,36.58
2022-12-15T06:34:10.740Z,54.55
2022-12-15T06:36:39.024Z,34.13
2022-12-15T06:39:09.674Z,32.80
2022-12-15T06:41:36.833Z,33.85
2022-12-15T06:44:03.902Z,54.35
2022-12-15T06:46:34.854Z,49.45
2022-12-15T06:49:01.804Z,51.50
2022-12-15T06:51:29.257Z,57.17
2022-12-15T06:53:56.514Z,43.42
2022-12-15T06:56:35.953Z,38.38
2022-12-15T06:59:05.759Z,54.80
2022-12-15T07:01:33.580Z,48.97
2022-12-15T07:04:01.616Z,46.15
2022-12-15T07:06:36.743Z,44.20
2022-12-15T07:09:07.931Z,49.65
2022-12-15T07:11:35.281Z,28.95
2022-12-15T07:14:04.860Z,52.40
2022-12-15T07:16:32.355Z,36.47
2022-12-15T07:18:59.175Z,53.22
2022-12-15T07:21:25.931Z,45.72
2022-12-15T07:23:55.921Z,28.67
2022-12-15T07:26:23.653Z,48.28
2022-12-15T07:28:50.447Z,31.25
2022-12-15T07:31:17.986Z,50.85
2022-12-15T07:33:45.328Z,54.55
2022-12-15T07:36:12.474Z,41.45
2022-12-15T07:38:39.222Z,49.20
2022-12-15T07:41:09.525Z,54.65
2022-12-15T07:43:37.059Z,41.95
2022-12-15T07:46:05.592Z,52.58
2022-12-15T07:48:33.344Z,42.80
2022-12-15T07:51:11.130Z,58.60
2022-12-15T07:53:42.326Z,57.17
2022-12-15T07:56:10.445Z,61.80
2022-12-15T07:58:38.716Z,59.20
2022-12-15T08:01:10.404Z,46.50
2022-12-15T08:03:38.820Z,62.35
2022-12-15T08:06:12.274Z,50.17
2022-12-15T08:11:14.235Z,24.10
2022-12-15T08:16:34.535Z,63.08
2022-12-15T08:19:01.587Z,46.38
2022-12-15T08:21:28.401Z,56.90
2022-12-15T08:23:55.180Z,50.38
2022-12-15T08:26:28.251Z,57.95
2022-12-15T08:29:11.845Z,29.92
2022-12-15T08:31:44.217Z,29.20
2022-12-15T08:34:11.236Z,48.20
2022-12-15T08:36:38.059Z,63.70
2022-12-15T08:39:05.004Z,62.50
2022-12-15T08:41:32.938Z,45.53
2022-12-15T08:44:02.284Z,51.05
2022-12-15T08:46:36.284Z,66.10
2022-12-15T08:49:04.079Z,58.08
2022-12-15T08:51:33.110Z,57.88
2022-12-15T08:54:01.569Z,52.38
2022-12-15T08:56:29.923Z,55.25
2022-12-15T08:59:01.951Z,47.90
2022-12-15T09:01:39.209Z,41.20
2022-12-15T09:04:06.854Z,63.25
2022-12-15T09:06:36.929Z,41.28
2022-12-15T09:09:08.027Z,59.35
2022-12-15T09:11:35.065Z,42.20
2022-12-15T09:14:02.394Z,62.55
2022-12-15T09:16:29.648Z,48.05
2022-12-15T09:18:59.681Z,61.03
2022-12-15T09:21:30.005Z,21.30
2022-12-15T09:24:01.835Z,33.30
2022-12-15T09:26:33.111Z,50.58
2022-12-15T09:29:01.844Z,56.60
2022-12-15T09:31:37.646Z,62.08
2022-12-15T09:34:04.364Z,50.10
2022-12-15T09:36:32.892Z,42.88
2022-12-15T09:39:02.036Z,62.85
2022-12-15T09:41:33.316Z,57.38
2022-12-15T09:44:18.119Z,67.75
2022-12-15T09:47:30.653Z,34.72
2022-12-15T09:50:03.064Z,34.10
2022-12-15T09:52:56.841Z,37.88
2022-12-15T09:55:28.240Z,28.85
2022-12-15T09:58:10.990Z,48.88
2022-12-15T10:00:52.609Z,37.80
2022-12-15T10:03:51.249Z,33.17
2022-12-15T10:06:33.925Z,48.92
2022-12-15T10:09:14.187Z,36.42
2022-12-15T10:11:50.717Z,32.03
2022-12-15T10:14:23.796Z,29.48
2022-12-15T10:16:59.287Z,35.17
2022-12-15T10:19:39.158Z,34.30
2022-12-15T10:22:13.263Z,40.03
2022-12-15T10:27:44.353Z,37.42
2022-12-15T10:30:13.938Z,28.60
2022-12-15T10:33:16.654Z,47.05
2022-12-15T10:35:44.154Z,52.92
2022-12-15T10:38:40.571Z,50.35
2022-12-15T10:41:20.757Z,51.95
2022-12-15T10:43:52.090Z,47.38
2022-12-15T10:46:30.491Z,41.63
2022-12-15T10:49:06.116Z,49.55
2022-12-15T10:51:42.535Z,48.08
2022-12-15T10:54:15.445Z,37.85
2022-12-15T10:56:59.550Z,27.67
2022-12-15T10:59:31.773Z,54.70
2022-12-15T11:02:24.683Z,55.17
2022-12-15T11:05:15.552Z,54.67
2022-12-15T11:07:46.557Z,42.15
2022-12-15T11:10:25.398Z,56.17
2022-12-15T11:13:08.441Z,41.83
2022-12-15T11:15:45.338Z,29.23
2022-12-15T11:18:51.214Z,43.75
2022-12-15T11:21:28.549Z,42.08
2022-12-15T11:24:15.732Z,43.47
2022-12-15T11:26:56.377Z,44.63
2022-12-15T11:29:23.413Z,45.25
2022-12-15T11:31:56.522Z,39.30
2022-12-15T11:34:39.347Z,45.42
2022-12-15T11:37:49.498Z,49.95
2022-12-15T11:40:41.857Z,46.13
2022-12-15T11:43:33.973Z,38.92
2022-12-15T11:46:22.922Z,44.47
2022-12-15T11:49:20.255Z,48.45
2022-12-15T11:52:03.179Z,42.88
2022-12-15T11:54:55.370Z,46.75
2022-12-15T11:57:53.097Z,50.75
2022-12-15T12:00:22.032Z,47.13
2022-12-15T12:02:48.792Z,49.85
2022-12-15T12:06:08.102Z,44.15
2022-12-15T12:08:48.115Z,48.92
2022-12-15T12:11:40.656Z,46.10
2022-12-15T12:14:23.010Z,46.97
2022-12-15T12:17:31.576Z,43.45
2022-12-15T12:20:11.233Z,50.45
2022-12-15T12:22:56.023Z,45.35
2022-12-15T12:25:26.572Z,35.50
2022-12-15T12:28:05.563Z,39.58
2022-12-15T12:30:44.445Z,48.08
2022-12-15T12:33:28.347Z,54.03
2022-12-15T12:36:07.041Z,45.55
2022-12-15T12:38:46.111Z,45.95
2022-12-15T12:42:03.694Z,41.70
2022-12-15T12:44:40.033Z,46.60
2022-12-15T12:47:35.176Z,43.70
2022-12-15T12:50:22.900Z,27.88
2022-12-15T12:53:03.612Z,50.67
2022-12-15T12:55:41.289Z,47.42
2022-12-15T12:58:33.297Z,50.70
2022-12-15T13:01:13.029Z,50.58
2022-12-15T13:03:42.558Z,42.42
2022-12-15T13:06:41.661Z,32.28
2022-12-15T13:09:17.238Z,45.65
2022-12-15T13:11:52.754Z,44.03
2022-12-15T13:14:29.269Z,43.55
2022-12-15T13:20:01.358Z,49.97
2022-12-15T13:22:41.813Z,29.92
2022-12-15T13:25:37.248Z,48.70
2022-12-15T13:28:36.073Z,46.53
2022-12-15T13:31:18.936Z,30.38
2022-12-15T13:33:56.707Z,41.53
2022-12-15T13:36:41.753Z,43.90
2022-12-15T13:44:57.318Z,23.25
2022-12-15T13:47:29.770Z,45.30
2022-12-15T13:50:03.223Z,41.25
2022-12-15T13:55:46.201Z,46.60
2022-12-15T13:58:20.345Z,56.58
2022-12-15T14:00:54.654Z,50.00
2022-12-15T14:03:22.404Z,34.33
2022-12-15T14:05:56.180Z,51.22
2022-12-15T14:08:26.810Z,44.10
2022-12-15T14:10:57.864Z,46.22
2022-12-15T14:13:30.783Z,50.67
2022-12-15T14:16:22.066Z,47.53
2022-12-15T14:19:14.245Z,47.65
2022-12-15T14:21:56.093Z,48.60
2022-12-15T14:24:39.023Z,39.60
2022-12-15T14:27:06.721Z,38.13
2022-12-15T14:29:33.663Z,49.28
2022-12-15T14:32:00.893Z,46.00
2022-12-15T14:34:36.863Z,41.97
2022-12-15T14:37:11.364Z,48.72
2022-12-15T14:39:45.155Z,47.88
2022-12-15T14:42:23.603Z,50.78
2022-12-15T14:44:57.468Z,40.63
2022-12-15T14:47:30.493Z,52.72
2022-12-15T14:50:01.153Z,52.88
2022-12-15T14:52:44.301Z,51.42
2022-12-15T14:55:36.844Z,45.58
2022-12-15T14:58:32.205Z,52.53
2022-12-15T15:01:00.115Z,49.78
2022-12-15T15:03:39.915Z,52.67
2022-12-15T15:06:12.389Z,48.55
2022-12-15T15:08:49.050Z,52.85
2022-12-15T15:11:35.682Z,53.50
2022-12-15T15:14:14.522Z,56.53
2022-12-15T15:19:21.932Z,51.63
2022-12-15T15:21:48.962Z,53.83
2022-12-15T15:24:15.670Z,47.35
2022-12-15T15:26:43.355Z,53.22
2022-12-15T15:29:41.435Z,57.45
2022-12-15T15:32:22.078Z,57.53
2022-12-15T15:34:49.499Z,54.97
2022-12-15T15:37:23.539Z,60.28
2022-12-15T15:39:54.033Z,53.95
2022-12-15T15:42:21.580Z,60.42
2022-12-15T15:44:48.549Z,57.08
2022-12-15T15:47:26.047Z,55.13
2022-12-15T15:49:56.702Z,56.58
2022-12-15T15:52:23.931Z,49.72
2022-12-15T15:54:53.522Z,51.67
2022-12-15T15:57:20.336Z,50.65
2022-12-15T15:59:47.788Z,57.83
2022-12-15T16:02:15.197Z,45.90
2022-12-15T16:04:43.957Z,55.40
2022-12-15T16:07:24.459Z,57.53
2022-12-15T16:09:53.733Z,58.58
2022-12-15T16:12:42.401Z,58.38
2022-12-15T16:15:23.790Z,50.80
2022-12-15T16:17:50.580Z,53.08
2022-12-15T16:20:21.400Z,55.72
2022-12-15T16:22:55.805Z,53.28
2022-12-15T16:25:50.309Z,57.28
2022-12-15T16:28:25.500Z,64.35
2022-12-15T16:30:53.258Z,60.65
2022-12-15T16:33:20.681Z,58.95
2022-12-15T16:35:49.780Z,65.63
2022-12-15T16:38:32.166Z,61.58
2022-12-15T16:41:07.185Z,65.35
2022-12-15T16:43:39.096Z,57.28
2022-12-15T16:46:07.442Z,56.42
2022-12-15T16:48:34.678Z,58.00
2022-12-15T16:51:02.556Z,64.47
2022-12-15T16:53:33.578Z,62.13
2022-12-15T16:56:05.197Z,57.42
2022-12-15T16:58:35.121Z,67.20
2022-12-15T17:01:03.862Z,63.05
2022-12-15T17:03:31.090Z,61.05
2022-12-15T17:06:16.340Z,47.55
2022-12-15T17:08:56.654Z,56.28
2022-12-15T17:11:26.820Z,65.10
2022-12-15T17:13:58.694Z,66.80
2022-12-15T17:16:28.152Z,68.65
2022-12-15T17:18:55.135Z,73.63
2022-12-15T17:21:30.259Z,67.18
2022-12-15T17:24:06.317Z,62.20
2022-12-15T17:26:37.003Z,37.85
2022-12-15T17:29:16.106Z,68.13
2022-12-15T17:31:42.939Z,56.40
2022-12-15T17:34:31.159Z,43.88
2022-12-15T17:37:01.300Z,55.28
2022-12-15T17:39:29.449Z,65.07
2022-12-15T17:42:01.469Z,62.97
2022-12-15T17:44:36.126Z,46.33
2022-12-15T17:47:06.688Z,57.63
2022-12-15T17:49:36.368Z,68.53
2022-12-15T17:52:28.597Z,58.63
2022-12-15T17:54:56.818Z,61.28
2022-12-15T17:57:23.815Z,64.82
2022-12-15T17:59:50.618Z,57.78
2022-12-15T18:02:17.639Z,71.72
2022-12-15T18:04:44.679Z,55.55
2022-12-15T18:07:20.542Z,63.72
2022-12-15T18:09:49.603Z,68.43
2022-12-15T18:12:26.806Z,66.82
2022-12-15T18:14:55.742Z,74.03
2022-12-15T18:17:22.947Z,54.45
2022-12-15T18:19:49.940Z,67.88
2022-12-15T18:22:23.583Z,60.30
2022-12-15T18:24:54.004Z,74.30
2022-12-15T18:27:26.921Z,65.32
2022-12-15T18:29:54.214Z,65.07
2022-12-15T18:32:26.225Z,73.13
2022-12-15T18:34:54.646Z,66.75
2022-12-15T18:37:28.143Z,64.97
2022-12-15T18:39:58.330Z,69.97
2022-12-15T18:42:30.909Z,58.25
2022-12-15T18:45:00.343Z,47.70
2022-12-15T18:47:27.707Z,68.65
2022-12-15T18:49:54.563Z,69.05
2022-12-15T18:52:26.602Z,52.97
2022-12-15T18:54:57.003Z,65.80
2022-12-15T18:57:33.250Z,59.15
2022-12-15T19:00:16.877Z,61.25
2022-12-15T19:02:43.879Z,58.78
2022-12-15T19:05:27.321Z,65.95
2022-12-15T19:07:57.216Z,54.72
2022-12-15T19:10:26.641Z,42.85
2022-12-15T19:12:58.381Z,55.90
2022-12-15T19:15:26.459Z,57.17
2022-12-15T19:18:11.801Z,39.53
2022-12-15T19:23:24.852Z,41.55
2022-12-15T19:25:52.953Z,61.08
2022-12-15T19:28:23.987Z,43.78
2022-12-15T19:30:52.081Z,37.92
2022-12-15T19:33:20.037Z,29.20
2022-12-15T19:35:51.453Z,50.70
2022-12-15T19:38:27.404Z,38.85
2022-12-15T19:40:55.804Z,52.97
2022-12-15T19:43:24.325Z,41.75
2022-12-15T19:45:52.599Z,54.92
2022-12-15T19:48:23.806Z,49.95
2022-12-15T19:50:52.160Z,42.85
2022-12-15T19:53:29.599Z,35.92
2022-12-15T19:56:01.531Z,42.35
2022-12-15T19:58:35.090Z,44.85
2022-12-15T20:01:10.456Z,33.20
2022-12-15T20:03:38.637Z,41.70
2022-12-15T20:06:16.941Z,31.17
2022-12-15T20:08:48.108Z,46.92
2022-12-15T20:11:22.381Z,53.03
2022-12-15T20:13:51.280Z,38.63
2022-12-15T20:16:20.016Z,55.10
2022-12-15T20:18:57.654Z,54.88
2022-12-15T20:21:32.979Z,55.40
2022-12-15T20:24:30.945Z,50.05
2022-12-15T20:29:29.468Z,46.75
2022-12-15T20:31:58.892Z,46.10
2022-12-15T20:34:25.978Z,51.53
2022-12-15T20:36:52.912Z,54.22
2022-12-15T20:39:26.669Z,59.63
2022-12-15T20:41:54.360Z,20.60
2022-12-15T20:44:23.021Z,53.92
2022-12-15T20:46:50.096Z,51.03
2022-12-15T20:49:19.877Z,52.88
2022-12-15T20:51:49.016Z,40.55
2022-12-15T20:54:22.019Z,45.97
2022-12-15T20:56:50.216Z,57.05
2022-12-15T20:59:17.797Z,40.28
2022-12-15T21:01:46.531Z,55.33
2022-12-15T21:04:30.021Z,41.20
2022-12-15T21:06:57.172Z,50.75
2022-12-15T21:09:24.208Z,53.78
2022-12-15T21:11:55.053Z,46.95
2022-12-15T21:14:23.968Z,56.30
2022-12-15T21:16:50.945Z,37.33
2022-12-15T21:19:20.780Z,55.72
2022-12-15T21:21:55.622Z,57.70
2022-12-15T21:24:26.934Z,62.50
2022-12-15T21:26:54.823Z,52.97
2022-12-15T21:29:25.695Z,52.75
2022-12-15T21:31:52.798Z,54.65
2022-12-15T21:34:19.717Z,50.15
2022-12-15T21:36:52.497Z,54.30
2022-12-15T21:39:29.638Z,56.30
2022-12-15T21:42:12.486Z,55.65
2022-12-15T21:44:39.296Z,51.58
2022-12-15T21:47:22.113Z,54.03
2022-12-15T21:49:48.866Z,39.83
2022-12-15T21:52:17.354Z,54.55
2022-12-15T21:54:44.421Z,56.38
2022-12-15T21:57:12.856Z,52.30
2022-12-15T21:59:43.515Z,58.67
2022-12-15T22:02:26.617Z,52.38
2022-12-15T22:04:55.082Z,60.13
2022-12-15T22:07:22.002Z,56.22
2022-12-15T22:09:48.734Z,58.88
2022-12-15T22:12:22.437Z,54.85
2022-12-15T22:14:49.572Z,59.47
2022-12-15T22:17:20.606Z,61.50
2022-12-15T22:19:47.775Z,63.65
2022-12-15T22:22:15.553Z,60.65
2022-12-15T22:24:42.601Z,63.53
2022-12-15T22:27:22.233Z,59.63
2022-12-15T22:29:50.339Z,54.42
2022-12-15T22:32:17.965Z,58.38
2022-12-15T22:34:44.752Z,55.40
2022-12-15T22:37:11.453Z,60.33
2022-12-15T22:39:38.197Z,59.97
2022-12-15T22:42:05.717Z,57.13
2022-12-15T22:44:37.852Z,45.47
2022-12-15T22:47:06.532Z,59.05
2022-12-15T22:49:40.329Z,53.70
2022-12-15T22:52:18.352Z,52.72
2022-12-15T22:54:46.217Z,58.00
2022-12-15T22:57:25.935Z,37.72
2022-12-15T23:00:05.618Z,57.08
2022-12-15T23:02:39.027Z,56.13
2022-12-15T23:05:06.914Z,57.35
2022-12-15T23:07:35.559Z,52.17
2022-12-15T23:10:21.942Z,38.22
2022-12-15T23:12:54.163Z,56.50
2022-12-15T23:15:47.632Z,58.85
2022-12-15T23:18:14.455Z,55.17
2022-12-15T23:20:41.472Z,54.20
2022-12-15T23:23:09.717Z,55.90
2022-12-15T23:25:36.707Z,58.70
2022-12-15T23:28:03.882Z,64.03
2022-12-15T23:30:30.779Z,57.60
2022-12-15T23:32:57.565Z,58.22
2022-12-15T23:35:24.270Z,55.03
2022-12-15T23:37:50.986Z,55.25
2022-12-15T23:40:22.040Z,52.83
2022-12-15T23:42:50.387Z,61.22
2022-12-15T23:45:18.284Z,60.72
2022-12-15T23:47:45.358Z,58.92
2022-12-15T23:50:12.178Z,61.97
2022-12-15T23:52:38.986Z,60.90
2022-12-15T23:55:10.042Z,63.00
2022-12-15T23:57:39.373Z,60.60
